sensor_id;sensor_type;location;lat;lon;timestamp;P1;durP1;ratioP1;P2;durP2;ratioP2
79308;SDS011;68767;53.078;7.386;2023-05-19T00:02:18;13.82;;;4.63;;
79308;SDS011;68767;53.078;7.386;2023-05-19T00:04:46;23.40;;;6.63;;
79308;SDS011;68767;53.078;7.386;2023-05-19T00:07:15;19.75;;;5.35;;
79308;SDS011;68767;53.078;7.386;2023-05-19T00:09:43;12.85;;;5.40;;
79308;SDS011;68767;53.078;7.386;2023-05-19T00:12:10;17.85;;;6.28;;
79308;SDS011;68767;53.078;7.386;2023-05-19T00:14:37;16.98;;;5.55;;
79308;SDS011;68767;53.078;7.386;2023-05-19T00:17:03;11.98;;;5.25;;
79308;SDS011;68767;53.078;7.386;2023-05-19T00:19:30;23.25;;;5.72;;
79308;SDS011;68767;53.078;7.386;2023-05-19T00:21:57;13.68;;;5.32;;
79308;SDS011;68767;53.078;7.386;2023-05-19T00:24:24;14.57;;;6.43;;
79308;SDS011;68767;53.078;7.386;2023-05-19T00:26:51;22.45;;;7.22;;
79308;SDS011;68767;53.078;7.386;2023-05-19T00:29:18;21.25;;;5.57;;
79308;SDS011;68767;53.078;7.386;2023-05-19T00:31:44;13.07;;;5.95;;
79308;SDS011;68767;53.078;7.386;2023-05-19T00:34:11;16.58;;;5.78;;
79308;SDS011;68767;53.078;7.386;2023-05-19T00:36:38;28.67;;;6.18;;
79308;SDS011;68767;53.078;7.386;2023-05-19T00:39:05;15.85;;;5.90;;
79308;SDS011;68767;53.078;7.386;2023-05-19T00:41:32;19.15;;;5.45;;
79308;SDS011;68767;53.078;7.386;2023-05-19T00:43:58;21.23;;;5.47;;
79308;SDS011;68767;53.078;7.386;2023-05-19T00:46:25;18.58;;;5.60;;
79308;SDS011;68767;53.078;7.386;2023-05-19T00:48:52;21.50;;;5.63;;
79308;SDS011;68767;53.078;7.386;2023-05-19T00:51:19;13.25;;;5.32;;
79308;SDS011;68767;53.078;7.386;2023-05-19T00:53:46;19.58;;;5.45;;
79308;SDS011;68767;53.078;7.386;2023-05-19T00:56:15;15.27;;;6.43;;
79308;SDS011;68767;53.078;7.386;2023-05-19T00:58:45;15.55;;;5.03;;
79308;SDS011;68767;53.078;7.386;2023-05-19T01:01:12;16.33;;;5.53;;
79308;SDS011;68767;53.078;7.386;2023-05-19T01:03:42;15.32;;;5.80;;
79308;SDS011;68767;53.078;7.386;2023-05-19T01:06:10;22.15;;;5.05;;
79308;SDS011;68767;53.078;7.386;2023-05-19T01:08:37;54.55;;;22.60;;
79308;SDS011;68767;53.078;7.386;2023-05-19T01:11:05;26.30;;;6.43;;
79308;SDS011;68767;53.078;7.386;2023-05-19T01:13:32;15.18;;;5.78;;
79308;SDS011;68767;53.078;7.386;2023-05-19T01:29:42;14.32;;;6.03;;
79308;SDS011;68767;53.078;7.386;2023-05-19T01:32:11;17.48;;;4.95;;
79308;SDS011;68767;53.078;7.386;2023-05-19T01:34:41;15.65;;;5.82;;
79308;SDS011;68767;53.078;7.386;2023-05-19T01:37:09;23.65;;;6.10;;
79308;SDS011;68767;53.078;7.386;2023-05-19T01:39:41;18.58;;;5.30;;
79308;SDS011;68767;53.078;7.386;2023-05-19T01:42:09;16.90;;;5.90;;
79308;SDS011;68767;53.078;7.386;2023-05-19T01:44:37;19.85;;;7.47;;
79308;SDS011;68767;53.078;7.386;2023-05-19T01:47:04;17.92;;;5.63;;
79308;SDS011;68767;53.078;7.386;2023-05-19T01:49:31;18.45;;;6.75;;
79308;SDS011;68767;53.078;7.386;2023-05-19T01:51:57;16.13;;;5.40;;
79308;SDS011;68767;53.078;7.386;2023-05-19T01:54:24;16.85;;;5.63;;
79308;SDS011;68767;53.078;7.386;2023-05-19T01:56:53;17.17;;;5.70;;
79308;SDS011;68767;53.078;7.386;2023-05-19T02:01:53;16.00;;;5.18;;
79308;SDS011;68767;53.078;7.386;2023-05-19T02:09:31;18.52;;;5.78;;
79308;SDS011;68767;53.078;7.386;2023-05-19T02:12:02;17.48;;;5.43;;
79308;SDS011;68767;53.078;7.386;2023-05-19T02:14:38;15.40;;;5.40;;
79308;SDS011;68767;53.078;7.386;2023-05-19T02:17:05;19.85;;;6.03;;
79308;SDS011;68767;53.078;7.386;2023-05-19T02:19:33;21.13;;;5.97;;
79308;SDS011;68767;53.078;7.386;2023-05-19T02:22:00;15.85;;;5.30;;
79308;SDS011;68767;53.078;7.386;2023-05-19T02:24:27;15.23;;;5.68;;
79308;SDS011;68767;53.078;7.386;2023-05-19T02:26:54;17.33;;;5.30;;
79308;SDS011;68767;53.078;7.386;2023-05-19T02:29:20;17.60;;;6.50;;
79308;SDS011;68767;53.078;7.386;2023-05-19T02:31:48;20.45;;;7.07;;
79308;SDS011;68767;53.078;7.386;2023-05-19T02:34:17;23.20;;;6.40;;
79308;SDS011;68767;53.078;7.386;2023-05-19T02:36:44;24.00;;;6.70;;
79308;SDS011;68767;53.078;7.386;2023-05-19T02:39:11;24.25;;;5.72;;
79308;SDS011;68767;53.078;7.386;2023-05-19T02:41:38;17.55;;;6.40;;
79308;SDS011;68767;53.078;7.386;2023-05-19T02:44:04;18.20;;;5.78;;
79308;SDS011;68767;53.078;7.386;2023-05-19T02:46:32;21.50;;;6.68;;
79308;SDS011;68767;53.078;7.386;2023-05-19T02:48:59;14.30;;;5.65;;
79308;SDS011;68767;53.078;7.386;2023-05-19T02:51:26;22.38;;;5.57;;
79308;SDS011;68767;53.078;7.386;2023-05-19T02:53:53;20.23;;;5.38;;
79308;SDS011;68767;53.078;7.386;2023-05-19T02:56:20;20.13;;;6.47;;
79308;SDS011;68767;53.078;7.386;2023-05-19T02:58:47;19.10;;;7.00;;
79308;SDS011;68767;53.078;7.386;2023-05-19T03:01:14;17.88;;;5.93;;
79308;SDS011;68767;53.078;7.386;2023-05-19T03:03:42;15.50;;;5.60;;
79308;SDS011;68767;53.078;7.386;2023-05-19T03:06:09;19.17;;;6.30;;
79308;SDS011;68767;53.078;7.386;2023-05-19T03:08:35;19.95;;;6.90;;
79308;SDS011;68767;53.078;7.386;2023-05-19T03:11:04;18.20;;;7.38;;
79308;SDS011;68767;53.078;7.386;2023-05-19T03:13:31;15.23;;;5.45;;
79308;SDS011;68767;53.078;7.386;2023-05-19T03:15:58;15.55;;;6.53;;
79308;SDS011;68767;53.078;7.386;2023-05-19T03:18:25;20.30;;;6.20;;
79308;SDS011;68767;53.078;7.386;2023-05-19T03:20:52;19.58;;;6.90;;
79308;SDS011;68767;53.078;7.386;2023-05-19T03:23:22;22.05;;;6.18;;
79308;SDS011;68767;53.078;7.386;2023-05-19T03:25:49;25.80;;;6.90;;
79308;SDS011;68767;53.078;7.386;2023-05-19T03:28:16;17.17;;;6.28;;
79308;SDS011;68767;53.078;7.386;2023-05-19T03:30:43;19.83;;;6.07;;
79308;SDS011;68767;53.078;7.386;2023-05-19T03:33:15;20.13;;;6.32;;
79308;SDS011;68767;53.078;7.386;2023-05-19T03:35:43;17.92;;;6.88;;
79308;SDS011;68767;53.078;7.386;2023-05-19T03:38:10;14.25;;;6.22;;
79308;SDS011;68767;53.078;7.386;2023-05-19T03:43:09;17.02;;;6.90;;
79308;SDS011;68767;53.078;7.386;2023-05-19T03:45:43;21.95;;;7.85;;
79308;SDS011;68767;53.078;7.386;2023-05-19T03:48:36;30.60;;;6.95;;
79308;SDS011;68767;53.078;7.386;2023-05-19T03:51:18;21.20;;;7.05;;
79308;SDS011;68767;53.078;7.386;2023-05-19T03:53:48;19.48;;;6.35;;
79308;SDS011;68767;53.078;7.386;2023-05-19T03:56:15;20.15;;;7.10;;
79308;SDS011;68767;53.078;7.386;2023-05-19T03:58:43;19.35;;;6.30;;
79308;SDS011;68767;53.078;7.386;2023-05-19T04:01:13;18.30;;;7.22;;
79308;SDS011;68767;53.078;7.386;2023-05-19T04:03:40;23.17;;;7.03;;
79308;SDS011;68767;53.078;7.386;2023-05-19T04:06:07;16.85;;;6.65;;
79308;SDS011;68767;53.078;7.386;2023-05-19T04:08:34;19.08;;;8.50;;
79308;SDS011;68767;53.078;7.386;2023-05-19T04:11:01;20.52;;;7.43;;
79308;SDS011;68767;53.078;7.386;2023-05-19T04:13:29;30.65;;;11.68;;
79308;SDS011;68767;53.078;7.386;2023-05-19T04:15:56;19.15;;;6.78;;
79308;SDS011;68767;53.078;7.386;2023-05-19T04:18:24;15.27;;;6.55;;
79308;SDS011;68767;53.078;7.386;2023-05-19T04:20:54;16.45;;;6.72;;
79308;SDS011;68767;53.078;7.386;2023-05-19T04:23:21;19.10;;;7.22;;
79308;SDS011;68767;53.078;7.386;2023-05-19T04:25:48;21.63;;;7.65;;
79308;SDS011;68767;53.078;7.386;2023-05-19T04:28:15;19.35;;;7.03;;
79308;SDS011;68767;53.078;7.386;2023-05-19T04:30:41;19.23;;;6.47;;
79308;SDS011;68767;53.078;7.386;2023-05-19T04:33:08;17.63;;;7.10;;
79308;SDS011;68767;53.078;7.386;2023-05-19T04:35:35;20.20;;;8.05;;
79308;SDS011;68767;53.078;7.386;2023-05-19T04:38:04;15.90;;;6.43;;
79308;SDS011;68767;53.078;7.386;2023-05-19T04:40:32;17.60;;;7.05;;
79308;SDS011;68767;53.078;7.386;2023-05-19T04:42:59;18.33;;;7.38;;
79308;SDS011;68767;53.078;7.386;2023-05-19T04:45:28;18.77;;;7.43;;
79308;SDS011;68767;53.078;7.386;2023-05-19T04:47:58;28.63;;;8.38;;
79308;SDS011;68767;53.078;7.386;2023-05-19T04:50:25;16.75;;;7.13;;
79308;SDS011;68767;53.078;7.386;2023-05-19T04:55:25;16.85;;;6.20;;
79308;SDS011;68767;53.078;7.386;2023-05-19T04:57:52;19.48;;;7.03;;
79308;SDS011;68767;53.078;7.386;2023-05-19T05:00:20;19.75;;;7.15;;
79308;SDS011;68767;53.078;7.386;2023-05-19T05:03:06;17.55;;;7.20;;
79308;SDS011;68767;53.078;7.386;2023-05-19T05:05:34;16.83;;;6.95;;
79308;SDS011;68767;53.078;7.386;2023-05-19T05:08:01;20.85;;;6.82;;
79308;SDS011;68767;53.078;7.386;2023-05-19T05:10:33;17.58;;;6.55;;
79308;SDS011;68767;53.078;7.386;2023-05-19T05:13:00;20.63;;;6.63;;
79308;SDS011;68767;53.078;7.386;2023-05-19T05:15:28;17.10;;;6.68;;
79308;SDS011;68767;53.078;7.386;2023-05-19T05:17:57;19.33;;;8.32;;
79308;SDS011;68767;53.078;7.386;2023-05-19T05:20:24;14.77;;;6.68;;
79308;SDS011;68767;53.078;7.386;2023-05-19T05:22:52;14.27;;;6.78;;
79308;SDS011;68767;53.078;7.386;2023-05-19T05:25:20;18.98;;;7.32;;
79308;SDS011;68767;53.078;7.386;2023-05-19T05:27:47;16.98;;;7.75;;
79308;SDS011;68767;53.078;7.386;2023-05-19T05:30:14;20.23;;;6.65;;
79308;SDS011;68767;53.078;7.386;2023-05-19T05:32:41;15.23;;;6.63;;
79308;SDS011;68767;53.078;7.386;2023-05-19T05:35:19;22.45;;;7.75;;
79308;SDS011;68767;53.078;7.386;2023-05-19T05:37:49;19.13;;;6.97;;
79308;SDS011;68767;53.078;7.386;2023-05-19T05:40:15;15.57;;;6.18;;
79308;SDS011;68767;53.078;7.386;2023-05-19T05:42:42;13.60;;;6.10;;
79308;SDS011;68767;53.078;7.386;2023-05-19T05:45:09;16.92;;;6.55;;
79308;SDS011;68767;53.078;7.386;2023-05-19T05:47:37;22.95;;;6.88;;
79308;SDS011;68767;53.078;7.386;2023-05-19T05:50:07;17.00;;;6.30;;
79308;SDS011;68767;53.078;7.386;2023-05-19T05:52:35;13.00;;;5.82;;
79308;SDS011;68767;53.078;7.386;2023-05-19T05:55:05;14.13;;;6.20;;
79308;SDS011;68767;53.078;7.386;2023-05-19T05:57:33;18.80;;;6.07;;
79308;SDS011;68767;53.078;7.386;2023-05-19T06:00:03;19.58;;;6.50;;
79308;SDS011;68767;53.078;7.386;2023-05-19T06:02:44;15.93;;;5.70;;
79308;SDS011;68767;53.078;7.386;2023-05-19T06:05:13;12.77;;;5.82;;
79308;SDS011;68767;53.078;7.386;2023-05-19T06:07:41;18.08;;;6.07;;
79308;SDS011;68767;53.078;7.386;2023-05-19T06:10:09;18.08;;;5.97;;
79308;SDS011;68767;53.078;7.386;2023-05-19T06:12:36;14.98;;;4.90;;
79308;SDS011;68767;53.078;7.386;2023-05-19T06:15:08;11.95;;;5.57;;
79308;SDS011;68767;53.078;7.386;2023-05-19T06:17:49;19.27;;;5.47;;
79308;SDS011;68767;53.078;7.386;2023-05-19T06:20:17;10.23;;;4.30;;
79308;SDS011;68767;53.078;7.386;2023-05-19T06:22:43;17.98;;;4.88;;
79308;SDS011;68767;53.078;7.386;2023-05-19T06:25:12;13.38;;;4.28;;
79308;SDS011;68767;53.078;7.386;2023-05-19T06:27:39;11.82;;;4.38;;
79308;SDS011;68767;53.078;7.386;2023-05-19T06:30:06;13.32;;;4.15;;
79308;SDS011;68767;53.078;7.386;2023-05-19T06:32:43;11.75;;;4.07;;
79308;SDS011;68767;53.078;7.386;2023-05-19T06:35:10;9.02;;;3.80;;
79308;SDS011;68767;53.078;7.386;2023-05-19T06:37:37;11.95;;;4.18;;
79308;SDS011;68767;53.078;7.386;2023-05-19T06:40:04;13.43;;;4.75;;
79308;SDS011;68767;53.078;7.386;2023-05-19T06:42:32;10.80;;;4.38;;
79308;SDS011;68767;53.078;7.386;2023-05-19T06:45:22;14.52;;;4.15;;
79308;SDS011;68767;53.078;7.386;2023-05-19T06:47:50;16.50;;;4.32;;
79308;SDS011;68767;53.078;7.386;2023-05-19T06:50:17;12.27;;;3.58;;
79308;SDS011;68767;53.078;7.386;2023-05-19T06:52:47;8.50;;;3.53;;
79308;SDS011;68767;53.078;7.386;2023-05-19T06:55:14;8.10;;;3.70;;
79308;SDS011;68767;53.078;7.386;2023-05-19T06:57:40;8.43;;;3.45;;
79308;SDS011;68767;53.078;7.386;2023-05-19T07:00:08;10.38;;;3.67;;
79308;SDS011;68767;53.078;7.386;2023-05-19T07:02:44;15.65;;;3.80;;
79308;SDS011;68767;53.078;7.386;2023-05-19T07:05:12;9.80;;;3.80;;
79308;SDS011;68767;53.078;7.386;2023-05-19T07:07:39;8.77;;;3.45;;
79308;SDS011;68767;53.078;7.386;2023-05-19T07:10:11;7.50;;;3.35;;
79308;SDS011;68767;53.078;7.386;2023-05-19T07:12:38;11.60;;;3.60;;
79308;SDS011;68767;53.078;7.386;2023-05-19T07:15:05;8.90;;;3.67;;
79308;SDS011;68767;53.078;7.386;2023-05-19T07:17:33;15.07;;;4.25;;
79308;SDS011;68767;53.078;7.386;2023-05-19T07:20:00;12.52;;;3.75;;
79308;SDS011;68767;53.078;7.386;2023-05-19T07:22:27;9.85;;;3.70;;
79308;SDS011;68767;53.078;7.386;2023-05-19T07:24:54;8.20;;;3.30;;
79308;SDS011;68767;53.078;7.386;2023-05-19T07:27:22;8.82;;;2.90;;
79308;SDS011;68767;53.078;7.386;2023-05-19T07:29:49;9.20;;;2.67;;
79308;SDS011;68767;53.078;7.386;2023-05-19T07:32:16;9.77;;;3.00;;
79308;SDS011;68767;53.078;7.386;2023-05-19T07:34:43;9.10;;;2.88;;
79308;SDS011;68767;53.078;7.386;2023-05-19T07:37:09;5.72;;;2.88;;
79308;SDS011;68767;53.078;7.386;2023-05-19T07:39:36;12.88;;;3.78;;
79308;SDS011;68767;53.078;7.386;2023-05-19T07:42:03;7.55;;;3.00;;
79308;SDS011;68767;53.078;7.386;2023-05-19T07:44:30;10.30;;;3.15;;
79308;SDS011;68767;53.078;7.386;2023-05-19T07:46:57;10.82;;;3.58;;
79308;SDS011;68767;53.078;7.386;2023-05-19T07:49:23;8.05;;;2.85;;
79308;SDS011;68767;53.078;7.386;2023-05-19T07:51:50;10.25;;;2.75;;
79308;SDS011;68767;53.078;7.386;2023-05-19T07:54:17;12.38;;;3.13;;
79308;SDS011;68767;53.078;7.386;2023-05-19T07:56:44;9.63;;;3.28;;
79308;SDS011;68767;53.078;7.386;2023-05-19T07:59:11;9.23;;;3.20;;
79308;SDS011;68767;53.078;7.386;2023-05-19T08:01:38;7.70;;;3.20;;
79308;SDS011;68767;53.078;7.386;2023-05-19T08:04:05;5.45;;;2.80;;
79308;SDS011;68767;53.078;7.386;2023-05-19T08:06:34;8.82;;;2.97;;
79308;SDS011;68767;53.078;7.386;2023-05-19T08:09:01;9.55;;;2.55;;
79308;SDS011;68767;53.078;7.386;2023-05-19T08:11:27;6.60;;;2.47;;
79308;SDS011;68767;53.078;7.386;2023-05-19T08:13:54;7.53;;;2.80;;
79308;SDS011;68767;53.078;7.386;2023-05-19T08:16:21;11.68;;;3.00;;
79308;SDS011;68767;53.078;7.386;2023-05-19T08:18:48;9.88;;;3.60;;
79308;SDS011;68767;53.078;7.386;2023-05-19T08:21:15;13.55;;;3.58;;
79308;SDS011;68767;53.078;7.386;2023-05-19T08:23:41;7.28;;;2.83;;
79308;SDS011;68767;53.078;7.386;2023-05-19T08:26:08;9.65;;;3.05;;
79308;SDS011;68767;53.078;7.386;2023-05-19T08:28:35;10.38;;;2.88;;
79308;SDS011;68767;53.078;7.386;2023-05-19T08:31:02;9.18;;;3.58;;
79308;SDS011;68767;53.078;7.386;2023-05-19T08:33:29;9.20;;;2.55;;
79308;SDS011;68767;53.078;7.386;2023-05-19T08:35:56;6.65;;;2.70;;
79308;SDS011;68767;53.078;7.386;2023-05-19T08:38:24;10.82;;;2.63;;
79308;SDS011;68767;53.078;7.386;2023-05-19T08:40:51;10.07;;;3.58;;
79308;SDS011;68767;53.078;7.386;2023-05-19T08:43:17;10.20;;;2.42;;
79308;SDS011;68767;53.078;7.386;2023-05-19T08:45:44;6.07;;;2.70;;
79308;SDS011;68767;53.078;7.386;2023-05-19T08:48:16;8.63;;;2.42;;
79308;SDS011;68767;53.078;7.386;2023-05-19T08:51:02;12.52;;;2.72;;
79308;SDS011;68767;53.078;7.386;2023-05-19T08:53:34;10.52;;;2.25;;
79308;SDS011;68767;53.078;7.386;2023-05-19T08:56:07;8.13;;;3.05;;
79308;SDS011;68767;53.078;7.386;2023-05-19T08:58:40;9.23;;;3.03;;
79308;SDS011;68767;53.078;7.386;2023-05-19T09:01:09;9.98;;;2.47;;
79308;SDS011;68767;53.078;7.386;2023-05-19T09:06:05;13.07;;;2.67;;
79308;SDS011;68767;53.078;7.386;2023-05-19T09:08:34;7.30;;;2.63;;
79308;SDS011;68767;53.078;7.386;2023-05-19T09:11:02;7.32;;;2.53;;
79308;SDS011;68767;53.078;7.386;2023-05-19T09:13:29;8.13;;;2.55;;
79308;SDS011;68767;53.078;7.386;2023-05-19T09:15:56;9.63;;;2.80;;
79308;SDS011;68767;53.078;7.386;2023-05-19T09:18:24;9.68;;;3.30;;
79308;SDS011;68767;53.078;7.386;2023-05-19T09:20:58;11.90;;;2.47;;
79308;SDS011;68767;53.078;7.386;2023-05-19T09:23:26;8.27;;;2.90;;
79308;SDS011;68767;53.078;7.386;2023-05-19T09:25:55;8.55;;;2.97;;
79308;SDS011;68767;53.078;7.386;2023-05-19T09:30:57;10.23;;;2.92;;
79308;SDS011;68767;53.078;7.386;2023-05-19T09:33:24;10.57;;;2.55;;
79308;SDS011;68767;53.078;7.386;2023-05-19T09:35:52;8.70;;;2.50;;
79308;SDS011;68767;53.078;7.386;2023-05-19T09:38:19;10.10;;;2.33;;
79308;SDS011;68767;53.078;7.386;2023-05-19T09:40:47;10.20;;;2.75;;
79308;SDS011;68767;53.078;7.386;2023-05-19T09:43:14;10.52;;;3.05;;
79308;SDS011;68767;53.078;7.386;2023-05-19T09:45:41;9.55;;;2.55;;
79308;SDS011;68767;53.078;7.386;2023-05-19T09:48:08;9.95;;;2.65;;
79308;SDS011;68767;53.078;7.386;2023-05-19T09:50:34;8.23;;;2.45;;
79308;SDS011;68767;53.078;7.386;2023-05-19T09:53:01;6.68;;;2.45;;
79308;SDS011;68767;53.078;7.386;2023-05-19T09:55:29;11.95;;;2.30;;
79308;SDS011;68767;53.078;7.386;2023-05-19T10:00:26;5.57;;;1.95;;
79308;SDS011;68767;53.078;7.386;2023-05-19T10:02:54;8.25;;;2.30;;
79308;SDS011;68767;53.078;7.386;2023-05-19T10:05:23;8.63;;;2.10;;
79308;SDS011;68767;53.078;7.386;2023-05-19T10:07:50;9.15;;;2.50;;
79308;SDS011;68767;53.078;7.386;2023-05-19T10:10:17;8.20;;;1.98;;
79308;SDS011;68767;53.078;7.386;2023-05-19T10:12:47;6.68;;;1.95;;
79308;SDS011;68767;53.078;7.386;2023-05-19T10:15:15;8.65;;;2.55;;
79308;SDS011;68767;53.078;7.386;2023-05-19T10:17:42;6.55;;;1.88;;
79308;SDS011;68767;53.078;7.386;2023-05-19T10:20:10;8.40;;;2.58;;
79308;SDS011;68767;53.078;7.386;2023-05-19T10:22:38;9.35;;;2.53;;
79308;SDS011;68767;53.078;7.386;2023-05-19T10:25:05;9.85;;;2.38;;
79308;SDS011;68767;53.078;7.386;2023-05-19T10:27:33;6.32;;;2.08;;
79308;SDS011;68767;53.078;7.386;2023-05-19T10:30:07;7.43;;;2.17;;
79308;SDS011;68767;53.078;7.386;2023-05-19T10:32:38;6.95;;;2.33;;
79308;SDS011;68767;53.078;7.386;2023-05-19T10:37:36;10.75;;;2.53;;
79308;SDS011;68767;53.078;7.386;2023-05-19T10:40:18;9.52;;;2.00;;
79308;SDS011;68767;53.078;7.386;2023-05-19T10:45:17;12.23;;;2.80;;
79308;SDS011;68767;53.078;7.386;2023-05-19T10:47:45;8.13;;;2.40;;
79308;SDS011;68767;53.078;7.386;2023-05-19T10:50:12;8.20;;;2.33;;
79308;SDS011;68767;53.078;7.386;2023-05-19T10:52:39;9.00;;;2.63;;
79308;SDS011;68767;53.078;7.386;2023-05-19T10:55:06;7.78;;;2.72;;
79308;SDS011;68767;53.078;7.386;2023-05-19T10:57:34;8.38;;;2.35;;
79308;SDS011;68767;53.078;7.386;2023-05-19T11:00:02;9.80;;;3.17;;
79308;SDS011;68767;53.078;7.386;2023-05-19T11:07:34;10.73;;;3.45;;
79308;SDS011;68767;53.078;7.386;2023-05-19T11:10:05;5.78;;;2.25;;
79308;SDS011;68767;53.078;7.386;2023-05-19T11:12:51;7.53;;;2.35;;
79308;SDS011;68767;53.078;7.386;2023-05-19T11:15:18;8.52;;;2.58;;
79308;SDS011;68767;53.078;7.386;2023-05-19T11:17:49;8.80;;;2.72;;
79308;SDS011;68767;53.078;7.386;2023-05-19T11:20:20;8.68;;;2.42;;
79308;SDS011;68767;53.078;7.386;2023-05-19T11:28:23;5.35;;;2.30;;
79308;SDS011;68767;53.078;7.386;2023-05-19T11:30:55;6.75;;;2.53;;
79308;SDS011;68767;53.078;7.386;2023-05-19T11:33:24;7.05;;;3.55;;
79308;SDS011;68767;53.078;7.386;2023-05-19T11:35:54;7.88;;;2.33;;
79308;SDS011;68767;53.078;7.386;2023-05-19T11:38:24;7.57;;;2.88;;
79308;SDS011;68767;53.078;7.386;2023-05-19T11:40:53;11.20;;;2.83;;
79308;SDS011;68767;53.078;7.386;2023-05-19T11:43:21;8.15;;;3.13;;
79308;SDS011;68767;53.078;7.386;2023-05-19T11:45:48;8.68;;;3.70;;
79308;SDS011;68767;53.078;7.386;2023-05-19T11:48:15;11.27;;;3.80;;
79308;SDS011;68767;53.078;7.386;2023-05-19T11:50:42;10.02;;;3.42;;
79308;SDS011;68767;53.078;7.386;2023-05-19T11:53:12;8.95;;;3.10;;
79308;SDS011;68767;53.078;7.386;2023-05-19T11:55:46;8.43;;;2.72;;
79308;SDS011;68767;53.078;7.386;2023-05-19T11:58:13;8.27;;;2.90;;
79308;SDS011;68767;53.078;7.386;2023-05-19T12:00:41;9.05;;;2.58;;
79308;SDS011;68767;53.078;7.386;2023-05-19T12:03:08;6.45;;;2.67;;
79308;SDS011;68767;53.078;7.386;2023-05-19T12:05:36;7.72;;;2.67;;
79308;SDS011;68767;53.078;7.386;2023-05-19T12:08:08;8.23;;;2.75;;
79308;SDS011;68767;53.078;7.386;2023-05-19T12:10:36;5.47;;;2.22;;
79308;SDS011;68767;53.078;7.386;2023-05-19T12:13:04;7.43;;;3.10;;
79308;SDS011;68767;53.078;7.386;2023-05-19T12:15:31;7.78;;;2.80;;
79308;SDS011;68767;53.078;7.386;2023-05-19T12:18:00;7.00;;;2.80;;
79308;SDS011;68767;53.078;7.386;2023-05-19T12:20:27;7.40;;;3.00;;
79308;SDS011;68767;53.078;7.386;2023-05-19T12:22:54;7.00;;;2.60;;
79308;SDS011;68767;53.078;7.386;2023-05-19T12:25:22;7.15;;;2.90;;
79308;SDS011;68767;53.078;7.386;2023-05-19T12:27:49;9.25;;;2.80;;
79308;SDS011;68767;53.078;7.386;2023-05-19T12:30:23;9.02;;;3.13;;
79308;SDS011;68767;53.078;7.386;2023-05-19T12:32:52;9.65;;;3.22;;
79308;SDS011;68767;53.078;7.386;2023-05-19T12:35:19;10.23;;;2.55;;
79308;SDS011;68767;53.078;7.386;2023-05-19T12:37:46;9.27;;;3.33;;
79308;SDS011;68767;53.078;7.386;2023-05-19T12:40:15;9.27;;;3.25;;
79308;SDS011;68767;53.078;7.386;2023-05-19T12:42:45;10.23;;;3.33;;
79308;SDS011;68767;53.078;7.386;2023-05-19T12:45:12;7.18;;;2.83;;
79308;SDS011;68767;53.078;7.386;2023-05-19T12:47:38;8.05;;;2.85;;
79308;SDS011;68767;53.078;7.386;2023-05-19T12:50:06;10.05;;;3.47;;
79308;SDS011;68767;53.078;7.386;2023-05-19T12:52:40;7.57;;;3.33;;
79308;SDS011;68767;53.078;7.386;2023-05-19T12:55:07;10.23;;;3.50;;
79308;SDS011;68767;53.078;7.386;2023-05-19T12:57:37;8.23;;;3.25;;
79308;SDS011;68767;53.078;7.386;2023-05-19T13:00:23;6.68;;;3.47;;
79308;SDS011;68767;53.078;7.386;2023-05-19T13:05:26;7.57;;;2.67;;
79308;SDS011;68767;53.078;7.386;2023-05-19T13:07:57;9.95;;;3.00;;
79308;SDS011;68767;53.078;7.386;2023-05-19T13:10:24;8.63;;;3.60;;
79308;SDS011;68767;53.078;7.386;2023-05-19T13:12:55;7.15;;;2.53;;
79308;SDS011;68767;53.078;7.386;2023-05-19T13:15:22;9.93;;;3.00;;
79308;SDS011;68767;53.078;7.386;2023-05-19T13:17:50;7.68;;;2.80;;
79308;SDS011;68767;53.078;7.386;2023-05-19T13:20:18;4.95;;;2.13;;
79308;SDS011;68767;53.078;7.386;2023-05-19T13:22:45;9.23;;;3.10;;
79308;SDS011;68767;53.078;7.386;2023-05-19T13:25:12;6.60;;;3.13;;
79308;SDS011;68767;53.078;7.386;2023-05-19T13:27:39;8.15;;;3.00;;
79308;SDS011;68767;53.078;7.386;2023-05-19T13:30:06;8.30;;;2.90;;
79308;SDS011;68767;53.078;7.386;2023-05-19T13:32:33;8.82;;;2.65;;
79308;SDS011;68767;53.078;7.386;2023-05-19T13:35:00;7.57;;;2.53;;
79308;SDS011;68767;53.078;7.386;2023-05-19T13:37:27;5.20;;;2.20;;
79308;SDS011;68767;53.078;7.386;2023-05-19T13:39:54;7.75;;;2.13;;
79308;SDS011;68767;53.078;7.386;2023-05-19T13:42:21;5.53;;;2.10;;
79308;SDS011;68767;53.078;7.386;2023-05-19T13:44:47;12.20;;;2.72;;
79308;SDS011;68767;53.078;7.386;2023-05-19T13:47:14;11.25;;;2.78;;
79308;SDS011;68767;53.078;7.386;2023-05-19T13:49:41;9.93;;;2.75;;
79308;SDS011;68767;53.078;7.386;2023-05-19T13:52:07;7.40;;;2.53;;
79308;SDS011;68767;53.078;7.386;2023-05-19T13:54:34;6.25;;;2.75;;
79308;SDS011;68767;53.078;7.386;2023-05-19T13:57:01;8.70;;;3.33;;
79308;SDS011;68767;53.078;7.386;2023-05-19T13:59:28;6.95;;;2.70;;
79308;SDS011;68767;53.078;7.386;2023-05-19T14:01:55;7.88;;;2.85;;
79308;SDS011;68767;53.078;7.386;2023-05-19T14:04:22;8.98;;;3.00;;
79308;SDS011;68767;53.078;7.386;2023-05-19T14:09:18;5.80;;;2.15;;
79308;SDS011;68767;53.078;7.386;2023-05-19T14:11:45;6.78;;;2.10;;
79308;SDS011;68767;53.078;7.386;2023-05-19T14:14:12;5.32;;;2.22;;
79308;SDS011;68767;53.078;7.386;2023-05-19T14:16:39;5.40;;;2.55;;
79308;SDS011;68767;53.078;7.386;2023-05-19T14:19:06;9.00;;;2.47;;
79308;SDS011;68767;53.078;7.386;2023-05-19T14:21:33;5.88;;;2.70;;
79308;SDS011;68767;53.078;7.386;2023-05-19T14:24:00;10.38;;;2.90;;
79308;SDS011;68767;53.078;7.386;2023-05-19T14:26:27;6.85;;;3.00;;
79308;SDS011;68767;53.078;7.386;2023-05-19T14:28:54;9.65;;;2.50;;
79308;SDS011;68767;53.078;7.386;2023-05-19T14:31:22;8.48;;;2.65;;
79308;SDS011;68767;53.078;7.386;2023-05-19T14:33:49;6.93;;;2.78;;
79308;SDS011;68767;53.078;7.386;2023-05-19T14:36:16;8.68;;;2.55;;
79308;SDS011;68767;53.078;7.386;2023-05-19T14:38:43;8.95;;;2.47;;
79308;SDS011;68767;53.078;7.386;2023-05-19T14:41:10;5.90;;;2.55;;
79308;SDS011;68767;53.078;7.386;2023-05-19T14:43:39;9.57;;;3.15;;
79308;SDS011;68767;53.078;7.386;2023-05-19T14:46:07;9.50;;;2.60;;
79308;SDS011;68767;53.078;7.386;2023-05-19T14:48:34;7.70;;;3.03;;
79308;SDS011;68767;53.078;7.386;2023-05-19T14:51:01;6.53;;;2.08;;
79308;SDS011;68767;53.078;7.386;2023-05-19T14:53:27;5.57;;;2.42;;
79308;SDS011;68767;53.078;7.386;2023-05-19T14:55:54;8.95;;;2.60;;
79308;SDS011;68767;53.078;7.386;2023-05-19T14:58:21;7.22;;;2.70;;
79308;SDS011;68767;53.078;7.386;2023-05-19T15:00:55;6.90;;;2.33;;
79308;SDS011;68767;53.078;7.386;2023-05-19T15:03:22;6.07;;;2.47;;
79308;SDS011;68767;53.078;7.386;2023-05-19T15:05:49;12.95;;;2.75;;
79308;SDS011;68767;53.078;7.386;2023-05-19T15:08:16;8.63;;;2.20;;
79308;SDS011;68767;53.078;7.386;2023-05-19T15:10:46;8.32;;;2.30;;
79308;SDS011;68767;53.078;7.386;2023-05-19T15:13:13;6.38;;;2.80;;
79308;SDS011;68767;53.078;7.386;2023-05-19T15:15:40;11.88;;;3.80;;
79308;SDS011;68767;53.078;7.386;2023-05-19T15:18:07;12.52;;;2.60;;
79308;SDS011;68767;53.078;7.386;2023-05-19T15:20:33;9.43;;;2.95;;
79308;SDS011;68767;53.078;7.386;2023-05-19T15:23:01;7.22;;;2.58;;
79308;SDS011;68767;53.078;7.386;2023-05-19T15:25:27;8.07;;;2.33;;
79308;SDS011;68767;53.078;7.386;2023-05-19T15:27:54;7.57;;;2.33;;
79308;SDS011;68767;53.078;7.386;2023-05-19T15:30:21;9.88;;;2.90;;
79308;SDS011;68767;53.078;7.386;2023-05-19T15:32:48;6.93;;;3.08;;
79308;SDS011;68767;53.078;7.386;2023-05-19T15:35:14;8.98;;;2.58;;
79308;SDS011;68767;53.078;7.386;2023-05-19T15:37:41;9.73;;;3.00;;
79308;SDS011;68767;53.078;7.386;2023-05-19T15:40:08;12.05;;;3.40;;
79308;SDS011;68767;53.078;7.386;2023-05-19T15:42:35;8.40;;;2.78;;